Hauptseite
METAR-TAF:

METAR-TAF

Flughäfen :

Flughafen Saint Brieuc

Saint-Brieuc, Frankreich

Breite: 48-32N, Länge: 002-51W, Höhe: 138 m

Beobachtung

Neuester Wetterbericht von vor 35 Minuten, um 11:00 UTC
Wind 13 kt aus Südwest, variierte zwischen Süd/Südwest und West
Temperatur 22°C
Luftfeuchtigkeit 65%
Luftdruck 1017 hPa
Sichtweite 10 km oder mehr
Aufgelockert bewölkt in der Höhe von 2800 ft
Durchbrochene Bewölkung in der Höhe von 3600 ft

METAR: LFRT 191100Z AUTO 23013KT 200V260 9999 SCT028 BKN036 22/15 Q1017

Zeit: 13:35 (11:35 UTC)


TAF: fehlend

Wetterbeobachtungen und Prognosen von mehr als 4000 Flughäfen (METAR und TAF Bericht).

Die verfügbaren Stationen werden durch gelbe und rote Markierungen auf der Karte dargestellt.

Führen Sie die Maus auf sie, um den Namen der Station zu sehen.

Darauf klicken, um die Beobachtung von Wetterbeobachtungen und Prognosen zu sehen.

Um die Karte zu ändern : klicken Sie auf den grünen Tasten mit einem schwarzen Kreuz Zum Vergrößern, auf den grünen Button mit einem Gedankenstrich zu verkleinern, oder auf die grünen Pfeile für benachbarte Karten.


METAR-TAF: